Time;durP1;ratioP1;P1;durP2;ratioP2;P2;SDS_P1;SDS_P2;PMS_P1;PMS_P2;Temp;Humidity;BMP_temperature;BMP_pressure;BME280_temperature;BME280_humidity;BME280_pressure;Samples;Min_cycle;Max_cycle;Signal;HPM_P1;HPM_P2
2022/10/30 00:00:01;;;;;;;;;;;17.00;99.90;17.20;99938.00;;;;338660;28;90557;-94
2022/10/30 00:00:13;;;;;;;;;;;17.00;99.90;17.20;99941.00;;;;339026;28;82395;-92
2022/10/30 00:00:25;;;;;;;;;;;17.00;99.90;17.20;99936.00;;;;337030;28;91578;-93
2022/10/30 00:00:37;;;;;;;;;;;17.00;99.90;17.20;99942.00;;;;337680;28;82544;-93
2022/10/30 00:00:49;;;;;;;;;;;17.00;99.90;17.20;99937.00;;;;338746;28;89006;-94
2022/10/30 00:01:00;;;;;;;;;;;17.00;99.90;17.30;99942.00;;;;337839;28;82491;-93
2022/10/30 00:01:12;;;;;;;;;;;17.00;99.90;17.30;99946.00;;;;338588;28;91248;-92
2022/10/30 00:01:24;;;;;;;;;;;17.00;99.90;17.40;99943.00;;;;336488;28;83316;-93
2022/10/30 00:01:36;;;;;;;;;;;17.00;99.90;17.40;99940.00;;;;338629;28;92970;-93
2022/10/30 00:01:48;;;;;;;;;;;17.00;99.90;17.30;99944.00;;;;340301;28;83521;-94
2022/10/30 00:01:59;;;;;;;;;;;17.00;99.90;17.20;99944.00;;;;337357;28;90675;-93
2022/10/30 00:02:11;;;;;;;;;;;17.00;99.90;17.10;99938.00;;;;340387;28;83308;-92
2022/10/30 00:02:23;;;;;;;;;;;17.00;99.90;17.10;99936.00;;;;337240;28;90683;-93
2022/10/30 00:02:35;;;;;;;;;;;17.00;99.90;17.10;99937.00;;;;339055;28;83369;-93
2022/10/30 00:02:48;;;;;;;;;;;17.00;99.90;17.20;99943.00;;;;338622;28;91887;-93
2022/10/30 00:03:00;;;;;;;;;;;17.00;99.90;17.20;99938.00;;;;338932;28;82483;-92
2022/10/30 00:03:13;;;;;;;;;;;17.00;99.90;17.20;99935.00;;;;338591;28;90541;-93
2022/10/30 00:03:25;;;;;;;;;;;17.00;99.90;17.20;99939.00;;;;337626;28;83422;-92
2022/10/30 00:03:37;;;;;;;;;;;17.00;99.90;17.20;99926.00;;;;338389;28;91491;-92
2022/10/30 00:03:48;;;;;;;;;;;17.00;99.90;17.20;99935.00;;;;340229;28;83463;-92
2022/10/30 00:04:00;;;;;;;;;;;17.00;99.90;17.30;99938.00;;;;341121;28;90988;-92
2022/10/30 00:04:12;;;;;;;;;;;17.00;99.90;17.20;99941.00;;;;339008;28;83414;-93
2022/10/30 00:04:24;;;;;;;;;;;17.00;99.90;17.10;99940.00;;;;338586;28;88937;-93
2022/10/30 00:04:36;;;;;;;;;;;17.00;99.90;17.10;99933.00;;;;339005;28;83605;-92
2022/10/30 00:04:47;;;;;;;;;;;17.00;99.90;17.20;99931.00;;;;337241;28;92027;-93
2022/10/30 00:04:59;;;;;;;;;;;17.00;99.90;17.20;99933.00;;;;339065;28;83457;-93
2022/10/30 00:05:11;;;;;;;;;;;17.00;99.90;17.20;99926.00;;;;338571;28;91151;-92
2022/10/30 00:05:23;;;;;;;;;;;17.00;99.90;17.10;99930.00;;;;339096;28;82568;-94
2022/10/30 00:05:34;;;;;;;;;;;17.00;99.90;17.10;99928.00;;;;338553;28;91149;-93
2022/10/30 00:05:48;;;;;;;;;;;16.90;99.90;17.10;99933.00;;;;337564;28;83476;-93
2022/10/30 00:06:02;;;;;;;;;;;17.00;99.90;17.10;99933.00;;;;335997;28;90715;-92
2022/10/30 00:06:13;;;;;;;;;;;17.00;99.90;17.00;99930.00;;;;336411;28;83434;-92
2022/10/30 00:06:25;;;;;;;;;;;16.90;99.90;17.00;99934.00;;;;337264;28;91577;-92
2022/10/30 00:06:37;;;;;;;;;;;16.90;99.90;17.20;99940.00;;;;338743;28;82615;-92
2022/10/30 00:06:49;;;;;;;;;;;16.90;99.90;17.30;99941.00;;;;341073;28;90484;-92
2022/10/30 00:07:00;;;;;;;;;;;17.00;99.90;17.30;99938.00;;;;339030;28;83475;-92
2022/10/30 00:07:12;;;;;;;;;;;17.00;99.90;17.30;99938.00;;;;338539;28;89852;-92
2022/10/30 00:07:24;;;;;;;;;;;17.00;99.90;17.20;99938.00;;;;337573;28;83531;-93
2022/10/30 00:07:35;;;;;;;;;;;17.00;99.90;17.30;99940.00;;;;337238;28;92574;-92
2022/10/30 00:07:47;;;;;;;;;;;17.00;99.90;17.10;99932.00;;;;338999;28;83410;-93
2022/10/30 00:07:59;;;;;;;;;;;16.90;99.90;17.10;99936.00;;;;336877;28;90218;-92
2022/10/30 00:08:12;;;;;;;;;;;16.90;99.90;17.10;99929.00;;;;339093;28;83457;-92
2022/10/30 00:08:27;;;;;;;;;;;16.90;99.90;17.00;99933.00;;;;338443;28;90309;-92
2022/10/30 00:08:39;;;;;;;;;;;16.90;99.90;17.10;99926.00;;;;341717;28;83483;-92
2022/10/30 00:08:50;;;;;;;;;;;16.90;99.90;17.10;99925.00;;;;339713;28;90457;-92
2022/10/30 00:09:02;;;;;;;;;;;16.90;99.90;17.10;99930.00;;;;339109;28;82490;-91
2022/10/30 00:09:14;;;;;;;;;;;16.90;99.90;17.10;99932.00;;;;338480;28;91939;-93
2022/10/30 00:09:26;;;;;;;;;;;16.90;99.90;17.00;99935.00;;;;339028;28;83548;-93
2022/10/30 00:09:37;;;;;;;;;;;16.90;99.90;17.00;99928.00;;;;338491;28;92725;-92
2022/10/30 00:09:49;;;;;;;;;;;16.80;99.90;17.10;99937.00;;;;340170;28;84269;-92
2022/10/30 00:10:01;;;;;;;;;;;16.90;99.90;17.20;99936.00;;;;341068;28;90247;-93
2022/10/30 00:10:13;;;;;;;;;;;16.90;99.90;17.10;99938.00;;;;339044;28;83538;-92
2022/10/30 00:10:24;;;;;;;;;;;16.90;99.90;17.20;99936.00;;;;338563;28;91188;-92
2022/10/30 00:10:36;;;;;;;;;;;16.90;99.90;17.00;99926.00;;;;337539;28;82545;-92
2022/10/30 00:10:49;;;;;;;;;;;16.90;99.90;16.90;99936.00;;;;347081;28;91357;-93
2022/10/30 00:11:08;;;;;;;;;;;16.90;99.90;17.00;99934.00;;;;339121;28;83319;-92
2022/10/30 00:11:20;;;;;;;;;;;16.80;99.90;16.90;99927.00;;;;337157;28;91963;-92
2022/10/30 00:11:31;;;;;;;;;;;16.80;99.90;16.80;99926.00;;;;337688;28;82366;-92
2022/10/30 00:11:43;;;;;;;;;;;16.80;99.90;16.90;99927.00;;;;337239;28;88717;-92
2022/10/30 00:11:55;;;;;;;;;;;16.80;99.90;16.90;99931.00;;;;337650;28;83632;-93
2022/10/30 00:12:07;;;;;;;;;;;16.80;99.90;16.90;99934.00;;;;336042;28;89013;-92
2022/10/30 00:12:18;;;;;;;;;;;16.80;99.90;16.90;99924.00;;;;337647;28;83430;-92
2022/10/30 00:12:30;;;;;;;;;;;16.80;99.90;16.80;99933.00;;;;337222;28;91258;-93
2022/10/30 00:12:42;;;;;;;;;;;16.80;99.90;16.80;99931.00;;;;338981;28;83371;-93
2022/10/30 00:12:54;;;;;;;;;;;16.80;99.90;16.90;99930.00;;;;337269;28;91991;-93
2022/10/30 00:13:05;;;;;;;;;;;16.80;99.90;16.90;99925.00;;;;339052;28;83422;-94
2022/10/30 00:13:19;;;;;;;;;;;16.80;99.90;17.00;99929.00;;;;337369;28;90200;-93
2022/10/30 00:13:31;;;;;;;;;;;16.80;99.90;17.00;99938.00;;;;341702;27;82600;-92
2022/10/30 00:13:43;;;;;;;;;;;16.80;99.90;16.90;99936.00;;;;338637;28;91771;-92
2022/10/30 00:13:55;;;;;;;;;;;16.70;99.90;16.80;99931.00;;;;343169;28;83543;-93
2022/10/30 00:14:07;;;;;;;;;;;16.80;99.90;16.80;99939.00;;;;338657;28;90474;-93
2022/10/30 00:14:19;;;;;;;;;;;16.70;99.90;16.70;99934.00;;;;339174;28;82418;-93
2022/10/30 00:14:31;;;;;;;;;;;16.80;99.90;16.70;99934.00;;;;337181;28;90369;-94
2022/10/30 00:14:42;;;;;;;;;;;16.70;99.90;16.70;99933.00;;;;337607;28;83510;-93
2022/10/30 00:14:54;;;;;;;;;;;16.70;99.90;16.80;99934.00;;;;337287;28;91700;-92
2022/10/30 00:15:06;;;;;;;;;;;16.70;99.90;16.80;99933.00;;;;337744;28;83333;-93
2022/10/30 00:15:18;;;;;;;;;;;16.70;99.90;16.70;99931.00;;;;338768;28;90398;-92
2022/10/30 00:15:30;;;;;;;;;;;16.70;99.90;16.70;99924.00;;;;339321;28;82503;-92
2022/10/30 00:15:49;;;;;;;;;;;16.70;99.90;16.70;99923.00;;;;340057;28;92394;-93
2022/10/30 00:16:02;;;;;;;;;;;16.70;99.90;16.80;99929.00;;;;339297;28;83512;-93
2022/10/30 00:16:14;;;;;;;;;;;16.70;99.90;16.90;99935.00;;;;337590;28;91625;-92
2022/10/30 00:16:26;;;;;;;;;;;16.70;99.90;16.80;99938.00;;;;340581;28;82536;-93
2022/10/30 00:16:37;;;;;;;;;;;16.70;99.90;16.90;99932.00;;;;340127;28;91918;-93
2022/10/30 00:16:49;;;;;;;;;;;16.70;99.90;16.90;99932.00;;;;340411;28;83375;-93
2022/10/30 00:17:01;;;;;;;;;;;16.70;99.90;16.80;99933.00;;;;340312;28;90738;-93
2022/10/30 00:17:12;;;;;;;;;;;16.70;99.90;16.80;99925.00;;;;339219;28;83452;-95
2022/10/30 00:17:24;;;;;;;;;;;16.70;99.90;16.80;99927.00;;;;338938;28;89423;-92
2022/10/30 00:17:36;;;;;;;;;;;16.70;99.90;16.80;99922.00;;;;337958;28;82446;-92
2022/10/30 00:17:48;;;;;;;;;;;16.70;99.90;16.70;99926.00;;;;340146;28;91148;-92
2022/10/30 00:18:00;;;;;;;;;;;16.70;99.90;16.80;99927.00;;;;339311;28;83386;-93
2022/10/30 00:18:12;;;;;;;;;;;16.70;99.90;16.80;99924.00;;;;337498;28;90330;-92
2022/10/30 00:18:24;;;;;;;;;;;16.60;99.90;16.80;99928.00;;;;340574;28;83452;-93
2022/10/30 00:18:36;;;;;;;;;;;16.60;99.90;16.80;99923.00;;;;338765;28;90704;-93
2022/10/30 00:18:48;;;;;;;;;;;16.60;99.90;16.80;99931.00;;;;338029;28;83129;-93
2022/10/30 00:18:59;;;;;;;;;;;16.60;99.90;16.90;99926.00;;;;338761;28;91322;-92
2022/10/30 00:19:11;;;;;;;;;;;16.60;99.90;16.90;99930.00;;;;340601;28;83430;-93
2022/10/30 00:19:23;;;;;;;;;;;16.60;99.90;16.90;99925.00;;;;337501;28;90246;-92
2022/10/30 00:19:35;;;;;;;;;;;16.60;99.90;16.80;99917.00;;;;338891;28;83554;-93
2022/10/30 00:19:46;;;;;;;;;;;16.60;99.90;16.80;99916.00;;;;338459;28;91891;-92
2022/10/30 00:19:58;;;;;;;;;;;16.60;99.90;16.70;99923.00;;;;337709;28;83432;-93
2022/10/30 00:20:10;;;;;;;;;;;16.60;99.90;16.70;99922.00;;;;339954;28;90975;-92
2022/10/30 00:20:22;;;;;;;;;;;16.60;99.90;16.70;99928.00;;;;339091;28;82499;-92
2022/10/30 00:20:35;;;;;;;;;;;16.60;99.90;16.70;99925.00;;;;338516;28;92187;-93
2022/10/30 00:20:48;;;;;;;;;;;16.60;99.90;16.70;99925.00;;;;339158;28;83305;-93
2022/10/30 00:21:07;;;;;;;;;;;16.60;99.90;16.80;99930.00;;;;340039;28;89511;-93
2022/10/30 00:21:19;;;;;;;;;;;16.60;99.90;16.80;99924.00;;;;338991;28;83438;-92
2022/10/30 00:21:31;;;;;;;;;;;16.60;99.90;16.70;99916.00;;;;335988;28;90199;-92
2022/10/30 00:21:43;;;;;;;;;;;16.60;99.90;16.70;99926.00;;;;340245;28;82612;-93
2022/10/30 00:21:56;;;;;;;;;;;16.60;99.90;16.70;99925.00;;;;338385;28;91648;-92
2022/10/30 00:22:07;;;;;;;;;;;16.60;99.90;16.80;99930.00;;;;339115;28;82246;-92
2022/10/30 00:22:17;;;;;;;;;;;16.60;99.90;16.90;99929.00;;;;337297;28;88537;-92
2022/10/30 00:22:29;;;;;;;;;;;16.60;99.90;16.90;99924.00;;;;340364;28;83263;-93
2022/10/30 00:22:41;;;;;;;;;;;16.60;99.90;16.80;99933.00;;;;339678;28;90523;-93
2022/10/30 00:22:53;;;;;;;;;;;16.60;99.90;16.80;99918.00;;;;340573;28;82458;-93
2022/10/30 00:23:04;;;;;;;;;;;16.60;99.90;16.80;99925.00;;;;338655;28;91447;-93
2022/10/30 00:23:16;;;;;;;;;;;16.60;99.90;16.80;99934.00;;;;340039;28;83525;-94
2022/10/30 00:23:28;;;;;;;;;;;16.60;99.90;16.80;99927.00;;;;338716;28;90300;-93
2022/10/30 00:23:47;;;;;;;;;;;16.60;99.90;16.70;99925.00;;;;339163;28;82508;-93
2022/10/30 00:24:00;;;;;;;;;;;16.60;99.90;16.70;99915.00;;;;338542;28;91795;-93
2022/10/30 00:24:11;;;;;;;;;;;16.60;99.90;16.60;99922.00;;;;339026;28;83370;-93
2022/10/30 00:24:23;;;;;;;;;;;16.60;99.90;16.60;99919.00;;;;338675;28;91175;-92
2022/10/30 00:24:35;;;;;;;;;;;16.60;99.90;16.70;99920.00;;;;340282;28;83458;-93
2022/10/30 00:24:47;;;;;;;;;;;16.60;99.90;16.70;99918.00;;;;339983;28;90522;-94
2022/10/30 00:24:58;;;;;;;;;;;16.60;99.90;16.70;99915.00;;;;337784;28;83184;-93
2022/10/30 00:25:10;;;;;;;;;;;16.60;99.90;16.70;99922.00;;;;338496;28;90246;-92
2022/10/30 00:25:22;;;;;;;;;;;16.50;99.90;16.70;99924.00;;;;344642;28;82574;-93
2022/10/30 00:25:35;;;;;;;;;;;16.50;99.90;16.70;99914.00;;;;337328;28;91874;-92
2022/10/30 00:25:47;;;;;;;;;;;16.50;99.90;16.70;99913.00;;;;337784;28;82487;-92
2022/10/30 00:26:04;;;;;;;;;;;16.50;99.90;16.80;99924.00;;;;335858;28;92705;-94
2022/10/30 00:26:16;;;;;;;;;;;16.50;99.90;16.70;99916.00;;;;338956;28;82535;-93
2022/10/30 00:26:27;;;;;;;;;;;16.50;99.90;16.80;99922.00;;;;339951;28;90563;-93
2022/10/30 00:26:39;;;;;;;;;;;16.60;99.90;16.80;99923.00;;;;340141;28;83525;-93
2022/10/30 00:26:51;;;;;;;;;;;16.50;99.90;16.80;99914.00;;;;335901;28;90573;-93
2022/10/30 00:27:03;;;;;;;;;;;16.50;99.90;16.90;99918.00;;;;338986;28;82531;-93
2022/10/30 00:27:14;;;;;;;;;;;16.60;99.90;17.00;99925.00;;;;339893;28;90638;-93
2022/10/30 00:27:26;;;;;;;;;;;16.60;99.90;17.00;99928.00;;;;339053;28;83470;-93
2022/10/30 00:27:38;;;;;;;;;;;16.60;99.90;17.10;99921.00;;;;339963;28;91470;-93
2022/10/30 00:27:50;;;;;;;;;;;16.60;99.90;17.10;99921.00;;;;340289;28;82540;-93
2022/10/30 00:28:03;;;;;;;;;;;16.60;99.90;17.00;99910.00;;;;338803;28;92517;-92
2022/10/30 00:28:15;;;;;;;;;;;16.60;99.90;16.90;99919.00;;;;340557;28;83443;-92
2022/10/30 00:28:27;;;;;;;;;;;16.60;99.90;16.90;99920.00;;;;338788;28;89998;-93
2022/10/30 00:28:39;;;;;;;;;;;16.60;99.90;16.90;99912.00;;;;339142;28;83487;-92
2022/10/30 00:28:51;;;;;;;;;;;16.60;99.90;16.90;99908.00;;;;341421;28;90201;-92
2022/10/30 00:29:03;;;;;;;;;;;16.60;99.90;16.90;99914.00;;;;340338;28;83343;-92
2022/10/30 00:29:15;;;;;;;;;;;16.60;99.90;17.00;99916.00;;;;338742;28;92107;-93
2022/10/30 00:29:26;;;;;;;;;;;16.60;99.90;16.90;99912.00;;;;340543;28;83474;-92
2022/10/30 00:29:38;;;;;;;;;;;16.60;99.90;16.90;99910.00;;;;337498;28;91631;-92
2022/10/30 00:29:50;;;;;;;;;;;16.60;99.90;16.90;99919.00;;;;337775;28;83446;-94
2022/10/30 00:30:01;;;;;;;;;;;16.60;99.90;16.90;99909.00;;;;340164;28;91164;-92
2022/10/30 00:30:15;;;;;;;;;;;16.60;99.90;17.00;99914.00;;;;337949;28;83406;-93
2022/10/30 00:30:26;;;;;;;;;;;16.60;99.90;17.00;99918.00;;;;338914;28;90740;-92
2022/10/30 00:30:38;;;;;;;;;;;16.60;99.90;17.00;99917.00;;;;347599;27;82532;-92
2022/10/30 00:30:50;;;;;;;;;;;16.60;99.90;17.00;99922.00;;;;337513;28;90998;-93
2022/10/30 00:31:02;;;;;;;;;;;16.60;99.90;17.00;99922.00;;;;339259;28;82518;-93
2022/10/30 00:31:14;;;;;;;;;;;16.60;99.90;17.10;99922.00;;;;337391;28;91675;-93
2022/10/30 00:31:26;;;;;;;;;;;16.60;99.90;17.10;99926.00;;;;339200;28;83389;-93
2022/10/30 00:31:37;;;;;;;;;;;16.60;99.90;17.10;99919.00;;;;338873;28;91373;-93
2022/10/30 00:31:49;;;;;;;;;;;16.60;99.90;17.00;99919.00;;;;339148;28;83376;-93
2022/10/30 00:32:01;;;;;;;;;;;16.60;99.90;17.00;99914.00;;;;340060;28;92657;-92
2022/10/30 00:32:13;;;;;;;;;;;16.60;99.90;16.90;99921.00;;;;340593;28;82626;-92
2022/10/30 00:32:24;;;;;;;;;;;16.60;99.90;16.80;99913.00;;;;338783;28;90713;-92
2022/10/30 00:32:36;;;;;;;;;;;16.60;99.90;16.80;99905.00;;;;340542;28;82595;-93
2022/10/30 00:32:48;;;;;;;;;;;16.60;99.90;16.80;99910.00;;;;340066;28;91937;-93
2022/10/30 00:33:00;;;;;;;;;;;16.60;99.90;16.80;99912.00;;;;339092;28;82646;-92
2022/10/30 00:33:12;;;;;;;;;;;16.60;99.90;16.90;99904.00;;;;338794;28;89979;-92
2022/10/30 00:33:23;;;;;;;;;;;16.60;99.90;16.90;99915.00;;;;339265;28;83441;-92
2022/10/30 00:33:35;;;;;;;;;;;16.60;99.90;16.80;99908.00;;;;337513;28;91553;-92
2022/10/30 00:33:50;;;;;;;;;;;16.60;99.90;16.90;99917.00;;;;341863;28;83875;-93
2022/10/30 00:34:02;;;;;;;;;;;16.60;99.90;16.90;99915.00;;;;339836;28;91941;-92
2022/10/30 00:34:14;;;;;;;;;;;16.60;99.90;16.90;99911.00;;;;339233;28;83299;-92
2022/10/30 00:34:25;;;;;;;;;;;16.60;99.90;16.80;99920.00;;;;338759;28;90463;-92
2022/10/30 00:34:37;;;;;;;;;;;16.60;99.90;16.90;99918.00;;;;339259;28;83413;-92
2022/10/30 00:34:49;;;;;;;;;;;16.60;99.90;17.00;99920.00;;;;338838;28;91701;-93
2022/10/30 00:35:01;;;;;;;;;;;16.60;99.90;17.00;99924.00;;;;337992;28;82660;-92
2022/10/30 00:35:13;;;;;;;;;;;16.60;99.90;17.00;99926.00;;;;337285;28;91229;-92
2022/10/30 00:35:24;;;;;;;;;;;16.60;99.90;17.00;99929.00;;;;344851;28;82637;-94
2022/10/30 00:35:36;;;;;;;;;;;16.60;99.90;17.00;99931.00;;;;337465;28;91929;-92
2022/10/30 00:35:48;;;;;;;;;;;16.60;99.90;16.90;99926.00;;;;337892;28;83214;-93
2022/10/30 00:36:00;;;;;;;;;;;16.60;99.90;16.80;99919.00;;;;338824;28;92279;-92
2022/10/30 00:36:11;;;;;;;;;;;16.60;99.90;16.70;99922.00;;;;337933;28;82663;-93
2022/10/30 00:36:23;;;;;;;;;;;16.60;99.90;16.70;99919.00;;;;340127;28;90469;-92
2022/10/30 00:36:35;;;;;;;;;;;16.60;99.90;16.70;99916.00;;;;337861;28;83483;-93
2022/10/30 00:36:47;;;;;;;;;;;16.60;99.90;16.80;99913.00;;;;339969;28;90751;-92
2022/10/30 00:36:58;;;;;;;;;;;16.60;99.90;16.80;99912.00;;;;340546;28;83411;-93
2022/10/30 00:37:10;;;;;;;;;;;16.60;99.90;16.80;99914.00;;;;338695;28;91249;-93
2022/10/30 00:37:22;;;;;;;;;;;16.60;99.90;16.80;99924.00;;;;340547;28;83547;-93
2022/10/30 00:37:33;;;;;;;;;;;16.60;99.90;16.70;99917.00;;;;338787;28;90889;-92
2022/10/30 00:37:45;;;;;;;;;;;16.60;99.90;16.70;99919.00;;;;339159;28;83473;-91
2022/10/30 00:37:59;;;;;;;;;;;16.60;99.90;16.60;99918.00;;;;336087;28;91568;-92
2022/10/30 00:38:11;;;;;;;;;;;16.60;99.90;16.70;99911.00;;;;337740;28;82526;-93
2022/10/30 00:38:23;;;;;;;;;;;16.60;99.90;16.70;99902.00;;;;337473;28;90141;-92
2022/10/30 00:38:35;;;;;;;;;;;16.60;99.90;16.70;99905.00;;;;337966;28;83469;-92
2022/10/30 00:38:46;;;;;;;;;;;16.60;99.90;16.80;99911.00;;;;338796;28;91732;-93
2022/10/30 00:38:58;;;;;;;;;;;16.60;99.90;16.70;99914.00;;;;340593;28;82465;-93
2022/10/30 00:39:10;;;;;;;;;;;16.50;99.90;16.70;99910.00;;;;337286;28;91674;-93
2022/10/30 00:39:21;;;;;;;;;;;16.50;99.90;16.80;99911.00;;;;340470;28;83475;-93
2022/10/30 00:39:33;;;;;;;;;;;16.50;99.90;16.80;99904.00;;;;337434;28;92284;-92
2022/10/30 00:39:45;;;;;;;;;;;16.50;99.90;16.70;99911.00;;;;339216;28;83454;-92
2022/10/30 00:39:57;;;;;;;;;;;16.50;99.90;16.70;99911.00;;;;336051;28;91762;-92
2022/10/30 00:40:15;;;;;;;;;;;16.50;99.90;16.70;99911.00;;;;340524;28;83478;-92
2022/10/30 00:40:26;;;;;;;;;;;16.50;99.90;16.70;99908.00;;;;338811;28;90121;-93
2022/10/30 00:40:38;;;;;;;;;;;16.50;99.90;16.80;99912.00;;;;344705;28;83474;-92
2022/10/30 00:40:50;;;;;;;;;;;16.50;99.90;16.80;99909.00;;;;336217;28;89999;-92
2022/10/30 00:41:02;;;;;;;;;;;16.50;99.90;16.80;99917.00;;;;339281;28;83257;-93
2022/10/30 00:41:15;;;;;;;;;;;16.50;99.90;16.90;99911.00;;;;337365;28;91673;-92
2022/10/30 00:41:26;;;;;;;;;;;16.50;99.90;16.90;99917.00;;;;339211;28;83454;-92
2022/10/30 00:41:40;;;;;;;;;;;16.50;99.90;16.80;99908.00;;;;340135;28;92019;-93
2022/10/30 00:41:52;;;;;;;;;;;16.50;99.90;16.60;99907.00;;;;339113;28;83399;-93
2022/10/30 00:42:04;;;;;;;;;;;16.50;99.90;16.40;99908.00;;;;337458;28;91085;-93
2022/10/30 00:42:16;;;;;;;;;;;16.50;99.90;16.40;99902.00;;;;340683;28;82469;-93
2022/10/30 00:42:29;;;;;;;;;;;16.50;99.90;16.30;99904.00;;;;337409;28;91790;-93
2022/10/30 00:42:40;;;;;;;;;;;16.40;99.90;16.30;99914.00;;;;336654;28;83240;-93
2022/10/30 00:42:53;;;;;;;;;;;16.40;99.90;16.40;99907.00;;;;338815;28;91529;-91
2022/10/30 00:43:28;;;;;;;;;;;16.40;99.90;16.60;99917.00;;;;337910;28;82624;-92
2022/10/30 00:43:39;;;;;;;;;;;16.40;99.90;16.50;99907.00;;;;338752;28;90668;-92
2022/10/30 00:43:51;;;;;;;;;;;16.40;99.90;16.50;99911.00;;;;337802;28;83345;-92
2022/10/30 00:44:35;;;;;;;;;;;16.40;99.90;16.50;99922.00;;;;337556;28;90122;-93
2022/10/30 00:44:47;;;;;;;;;;;16.40;99.90;16.60;99919.00;;;;337894;28;83518;-92
2022/10/30 00:44:59;;;;;;;;;;;16.40;99.90;16.60;99919.00;;;;338901;28;88985;-93
2022/10/30 00:45:12;;;;;;;;;;;16.40;99.90;16.50;99913.00;;;;337844;28;83521;-93
2022/10/30 00:45:23;;;;;;;;;;;16.40;99.90;16.50;99908.00;;;;338819;28;91874;-94
2022/10/30 00:45:35;;;;;;;;;;;16.30;99.90;16.50;99913.00;;;;340479;28;82577;-92
2022/10/30 00:45:47;;;;;;;;;;;16.30;99.90;16.50;99916.00;;;;337471;28;91623;-93
2022/10/30 00:46:07;;;;;;;;;;;16.30;99.90;16.50;99914.00;;;;338960;28;83590;-92
2022/10/30 00:46:20;;;;;;;;;;;16.30;99.90;16.50;99920.00;;;;337367;28;90197;-94
2022/10/30 00:46:34;;;;;;;;;;;16.40;99.90;16.50;99916.00;;;;337832;28;83563;-93
2022/10/30 00:46:45;;;;;;;;;;;16.40;99.90;16.50;99919.00;;;;337511;28;91347;-94
2022/10/30 00:46:58;;;;;;;;;;;16.40;99.90;16.40;99910.00;;;;340589;28;83455;-93
2022/10/30 00:47:32;;;;;;;;;;;16.40;99.90;16.50;99918.00;;;;337427;28;92412;-93
2022/10/30 00:47:55;;;;;;;;;;;16.30;99.90;16.60;99912.00;;;;336448;28;82581;-94
2022/10/30 00:48:08;;;;;;;;;;;16.40;99.90;16.50;99913.00;;;;337473;28;88431;-94
2022/10/30 00:48:20;;;;;;;;;;;16.30;99.90;16.50;99908.00;;;;337846;28;83448;-93
2022/10/30 00:48:31;;;;;;;;;;;16.30;99.90;16.50;99912.00;;;;337414;28;90114;-92
2022/10/30 00:48:45;;;;;;;;;;;16.30;99.90;16.50;99916.00;;;;339246;28;82568;-94
2022/10/30 00:49:02;;;;;;;;;;;16.30;99.90;16.50;99907.00;;;;337607;28;90440;-94
2022/10/30 00:49:16;;;;;;;;;;;16.30;99.90;16.50;99915.00;;;;337784;28;83582;-93
2022/10/30 00:49:30;;;;;;;;;;;16.30;99.90;16.60;99913.00;;;;338615;28;90552;-93
2022/10/30 00:50:06;;;;;;;;;;;16.30;99.90;16.60;99906.00;;;;337818;28;82550;-95
2022/10/30 00:50:20;;;;;;;;;;;16.30;99.90;16.50;99923.00;;;;337227;28;92624;-95
2022/10/30 00:50:35;;;;;;;;;;;16.30;99.90;16.50;99916.00;;;;339198;28;83485;-94
2022/10/30 00:50:47;;;;;;;;;;;16.30;99.90;16.40;99909.00;;;;336168;28;90749;-95
2022/10/30 00:50:59;;;;;;;;;;;16.30;99.90;16.40;99913.00;;;;340655;28;83276;-94
2022/10/30 00:51:11;;;;;;;;;;;16.30;99.90;16.40;99911.00;;;;339872;28;90809;-94
2022/10/30 00:51:22;;;;;;;;;;;16.20;99.90;16.40;99912.00;;;;337688;28;83554;-94
2022/10/30 00:51:34;;;;;;;;;;;16.30;99.90;16.50;99915.00;;;;338781;28;90573;-94
2022/10/30 00:51:48;;;;;;;;;;;16.20;99.90;16.40;99908.00;;;;339121;28;83543;-93
2022/10/30 00:52:00;;;;;;;;;;;16.30;99.90;16.50;99915.00;;;;338574;28;89489;-94
2022/10/30 00:52:12;;;;;;;;;;;16.30;99.90;16.70;99915.00;;;;339286;28;82528;-94
2022/10/30 00:52:25;;;;;;;;;;;16.30;99.90;16.70;99918.00;;;;341208;28;91134;-94
2022/10/30 00:52:44;;;;;;;;;;;16.30;99.90;16.70;99913.00;;;;339282;28;83516;-94
2022/10/30 00:53:00;;;;;;;;;;;16.30;99.90;16.50;99916.00;;;;340100;28;91988;-93
2022/10/30 00:53:14;;;;;;;;;;;16.30;99.90;16.50;99918.00;;;;339171;28;82484;-94
2022/10/30 00:53:26;;;;;;;;;;;16.30;99.90;16.50;99917.00;;;;338476;28;91241;-94
2022/10/30 00:53:37;;;;;;;;;;;16.30;99.90;16.50;99919.00;;;;339122;28;83406;-95
2022/10/30 00:53:49;;;;;;;;;;;16.30;99.90;16.50;99913.00;;;;338635;28;90386;-93
2022/10/30 00:54:02;;;;;;;;;;;16.30;99.90;16.50;99915.00;;;;339248;28;82619;-95
2022/10/30 00:54:14;;;;;;;;;;;16.30;99.90;16.50;99916.00;;;;337512;28;91039;-93
2022/10/30 00:54:26;;;;;;;;;;;16.30;99.90;16.60;99907.00;;;;339142;28;83475;-93
2022/10/30 00:54:37;;;;;;;;;;;16.20;99.90;16.50;99915.00;;;;338735;28;91546;-94
2022/10/30 00:54:50;;;;;;;;;;;16.20;99.90;16.50;99907.00;;;;340309;28;83570;-94
2022/10/30 00:55:13;;;;;;;;;;;16.30;99.90;16.40;99907.00;;;;340029;28;90395;-94
2022/10/30 00:55:27;;;;;;;;;;;16.30;99.90;16.40;99909.00;;;;339225;28;82484;-94
2022/10/30 00:55:49;;;;;;;;;;;16.30;99.90;16.50;99912.00;;;;338835;28;90137;-93
2022/10/30 00:56:01;;;;;;;;;;;16.20;99.90;16.60;99916.00;;;;337935;28;83465;-93
2022/10/30 00:56:13;;;;;;;;;;;16.30;99.90;16.60;99917.00;;;;337399;28;90646;-94
2022/10/30 00:56:25;;;;;;;;;;;16.20;99.90;16.70;99909.00;;;;339049;28;83458;-93
2022/10/30 00:56:36;;;;;;;;;;;16.20;99.90;16.70;99924.00;;;;339934;28;90570;-94
2022/10/30 00:56:48;;;;;;;;;;;16.30;99.90;16.60;99925.00;;;;340630;28;82600;-94
2022/10/30 00:57:01;;;;;;;;;;;16.30;99.90;16.60;99924.00;;;;338661;28;91787;-94
2022/10/30 00:57:13;;;;;;;;;;;16.30;99.90;16.50;99911.00;;;;339110;28;83529;-94
2022/10/30 00:57:25;;;;;;;;;;;16.30;99.90;16.50;99913.00;;;;338514;28;90122;-94
2022/10/30 00:57:38;;;;;;;;;;;16.30;99.90;16.50;99915.00;;;;339180;28;82559;-93
2022/10/30 00:57:52;;;;;;;;;;;16.30;99.90;16.50;99906.00;;;;337228;28;89576;-94
2022/10/30 00:58:06;;;;;;;;;;;16.30;99.90;16.50;99902.00;;;;339315;28;82350;-93
2022/10/30 00:58:21;;;;;;;;;;;16.30;99.90;16.50;99913.00;;;;338667;28;91320;-93
2022/10/30 00:58:36;;;;;;;;;;;16.30;99.90;16.60;99913.00;;;;338948;28;83525;-94
2022/10/30 00:58:59;;;;;;;;;;;16.20;99.90;16.60;99920.00;;;;338631;28;90714;-94
2022/10/30 00:59:12;;;;;;;;;;;16.20;99.90;16.60;99917.00;;;;341203;27;83441;-95
2022/10/30 00:59:27;;;;;;;;;;;16.30;99.90;16.60;99909.00;;;;336817;28;91719;-94
2022/10/30 00:59:38;;;;;;;;;;;16.30;99.90;16.50;99911.00;;;;340625;28;82461;-94
2022/10/30 00:59:50;;;;;;;;;;;16.30;99.90;16.50;99899.00;;;;338704;28;91617;-94
2022/10/30 01:00:04;;;;;;;;;;;16.30;99.90;16.40;99907.00;;;;339345;28;83521;-94
2022/10/30 01:00:16;;;;;;;;;;;16.30;99.90;16.40;99907.00;;;;337343;28;91186;-93
2022/10/30 01:00:27;;;;;;;;;;;16.30;99.90;16.40;99904.00;;;;337894;28;83394;-93
2022/10/30 01:00:40;;;;;;;;;;;16.20;99.90;16.40;99914.00;;;;337576;28;88739;-93
2022/10/30 01:00:52;;;;;;;;;;;16.20;99.90;16.40;99912.00;;;;337977;28;83436;-93
2022/10/30 01:01:06;;;;;;;;;;;16.20;99.90;16.40;99919.00;;;;338931;28;91024;-94
2022/10/30 01:01:25;;;;;;;;;;;16.20;99.90;16.70;99914.00;;;;340292;28;83533;-93
2022/10/30 01:01:38;;;;;;;;;;;16.20;99.90;16.50;99908.00;;;;336530;28;92617;-94
2022/10/30 01:01:49;;;;;;;;;;;16.20;99.90;16.50;99910.00;;;;339697;28;82455;-93
2022/10/30 01:02:02;;;;;;;;;;;16.30;99.90;16.50;99912.00;;;;339362;28;92216;-94
2022/10/30 01:02:14;;;;;;;;;;;16.20;99.90;16.50;99905.00;;;;339641;28;83315;-93
2022/10/30 01:02:26;;;;;;;;;;;16.20;99.90;16.50;99901.00;;;;337990;28;90103;-94
2022/10/30 01:02:38;;;;;;;;;;;16.20;99.90;16.50;99910.00;;;;339608;28;82758;-93
2022/10/30 01:02:51;;;;;;;;;;;16.20;99.90;16.50;99910.00;;;;339357;28;88396;-93
2022/10/30 01:03:03;;;;;;;;;;;16.20;99.90;16.60;99909.00;;;;338339;28;82463;-94
2022/10/30 01:03:14;;;;;;;;;;;16.20;99.90;16.50;99911.00;;;;337928;28;90895;-94